createdAt,value
2022-12-14T00:04:36.147Z,-3.70
2022-12-14T00:09:38.602Z,-3.70
2022-12-14T00:14:41.170Z,-3.80
2022-12-14T00:19:43.673Z,-4.00
2022-12-14T00:24:51.423Z,-4.10
2022-12-14T00:29:56.002Z,-4.50
2022-12-14T00:40:06.813Z,-6.30
2022-12-14T01:30:39.795Z,-6.30
2022-12-14T01:45:47.994Z,-6.00
2022-12-14T01:55:55.679Z,-5.90
2022-12-14T02:01:01.463Z,-5.90
2022-12-14T02:06:08.662Z,-5.90
2022-12-14T02:21:51.036Z,-6.10
2022-12-14T02:27:09.040Z,-6.10
2022-12-14T02:32:14.893Z,-5.90
2022-12-14T02:37:28.634Z,-5.80
2022-12-14T02:42:57.491Z,-5.60
2022-12-14T02:53:31.323Z,-5.40
2022-12-14T02:58:41.188Z,-5.50
2022-12-14T03:08:47.434Z,-5.50
2022-12-14T03:14:03.049Z,-5.40
2022-12-14T03:19:10.997Z,-5.30
2022-12-14T03:24:18.812Z,-5.40
2022-12-14T03:29:27.658Z,-5.70
2022-12-14T03:34:35.900Z,-5.90
2022-12-14T03:39:41.956Z,-6.30
2022-12-14T03:45:11.997Z,-7.00
2022-12-14T03:50:25.494Z,-7.90
2022-12-14T03:55:40.717Z,-8.40
2022-12-14T04:00:58.838Z,-8.80
2022-12-14T04:06:09.648Z,-9.20
2022-12-14T04:11:34.483Z,-9.60
2022-12-14T04:16:59.730Z,-10.10
2022-12-14T04:22:10.912Z,-7.50
2022-12-14T04:27:51.089Z,-11.40
2022-12-14T04:32:59.132Z,-11.90
2022-12-14T04:38:07.913Z,-12.00
2022-12-14T04:43:19.300Z,-12.50
2022-12-14T04:48:39.271Z,-12.30
2022-12-14T04:53:45.543Z,-12.70
2022-12-14T04:58:48.365Z,-12.40
2022-12-14T05:04:12.901Z,-12.10
2022-12-14T05:14:27.662Z,-12.50
2022-12-14T05:34:39.049Z,-12.20
2022-12-14T05:44:47.000Z,-12.50
2022-12-14T06:20:07.945Z,-11.70
2022-12-14T06:25:10.633Z,-11.70
2022-12-14T06:30:13.989Z,-11.50
2022-12-14T06:40:19.758Z,-11.10
2022-12-14T06:50:27.886Z,-11.10
2022-12-14T06:55:31.305Z,-11.00
2022-12-14T07:05:37.324Z,-10.70
2022-12-14T07:20:57.301Z,-10.10
2022-12-14T07:26:20.949Z,-9.90
2022-12-14T07:31:25.910Z,-9.80
2022-12-14T07:36:30.160Z,-9.70
2022-12-14T07:51:44.372Z,-7.60
2022-12-14T07:56:47.261Z,-8.80
2022-12-14T08:17:00.889Z,-8.30
2022-12-14T08:27:07.063Z,-8.00
2022-12-14T08:32:10.469Z,-7.90
2022-12-14T08:42:16.699Z,-7.50
2022-12-14T08:47:19.836Z,-7.40
2022-12-14T08:57:25.958Z,-7.30
2022-12-14T09:07:33.130Z,-6.90
2022-12-14T09:12:36.493Z,-6.70
2022-12-14T09:22:43.082Z,-6.60
2022-12-14T09:27:45.968Z,-6.50
2022-12-14T09:32:50.623Z,-6.40
2022-12-14T09:37:53.311Z,-6.20
2022-12-14T09:43:03.597Z,-6.20
2022-12-14T09:48:21.103Z,-6.20
2022-12-14T09:53:24.897Z,-6.10
2022-12-14T09:58:29.231Z,-6.00
2022-12-14T10:04:02.701Z,-5.80
2022-12-14T10:09:26.390Z,-5.80
2022-12-14T10:14:50.366Z,-5.80
2022-12-14T10:19:55.120Z,-5.70
2022-12-14T10:25:19.035Z,-5.60
2022-12-14T10:30:21.561Z,-5.60
2022-12-14T10:35:44.794Z,-5.50
2022-12-14T10:40:50.395Z,-5.30
2022-12-14T10:46:19.232Z,-5.30
2022-12-14T10:51:30.719Z,-5.10
2022-12-14T10:56:36.047Z,-5.20
2022-12-14T11:01:38.705Z,-5.20
2022-12-14T11:06:41.408Z,-5.20
2022-12-14T11:11:45.735Z,-5.30
2022-12-14T11:16:48.383Z,-5.20
2022-12-14T11:22:04.847Z,-5.00
2022-12-14T11:27:11.077Z,-5.00
2022-12-14T11:32:40.605Z,-5.00
2022-12-14T11:37:43.378Z,-5.00
2022-12-14T11:42:50.576Z,-5.00
2022-12-14T11:48:14.992Z,-4.90
2022-12-14T11:53:19.660Z,-4.90
2022-12-14T11:58:30.981Z,-5.20
2022-12-14T12:03:45.362Z,-5.10
2022-12-14T12:08:53.693Z,-5.10
2022-12-14T12:14:12.378Z,-2.40
2022-12-14T12:19:23.156Z,-5.20
2022-12-14T12:24:27.718Z,-5.20
2022-12-14T12:29:55.376Z,-5.20
2022-12-14T12:35:14.703Z,-5.00
2022-12-14T12:40:33.366Z,-5.10
2022-12-14T12:45:51.571Z,-5.00
2022-12-14T12:51:07.285Z,-3.20
2022-12-14T12:56:25.102Z,-5.00
2022-12-14T13:01:40.654Z,-4.90
2022-12-14T13:07:01.510Z,-4.60
2022-12-14T13:12:07.933Z,-4.70
2022-12-14T13:23:43.815Z,-4.80
2022-12-14T13:28:40.905Z,-4.90
2022-12-14T13:34:03.854Z,-5.00
2022-12-14T13:39:24.072Z,-5.30
2022-12-14T13:44:37.429Z,-5.50
2022-12-14T13:50:34.228Z,-5.50
2022-12-14T13:55:34.002Z,-5.60
2022-12-14T14:00:45.720Z,-5.60
2022-12-14T14:05:48.229Z,-5.90
2022-12-14T14:10:54.168Z,-5.90
2022-12-14T14:16:27.966Z,-5.90
2022-12-14T14:21:52.543Z,-6.10
2022-12-14T14:27:19.073Z,-6.20
2022-12-14T14:32:35.744Z,-6.40
2022-12-14T14:37:40.571Z,-6.30
2022-12-14T14:43:24.738Z,-6.50
2022-12-14T14:48:35.448Z,-6.50
2022-12-14T14:53:39.582Z,-6.20
2022-12-14T14:58:42.832Z,-6.10
2022-12-14T15:03:45.302Z,-5.90
2022-12-14T15:09:20.340Z,-5.80
2022-12-14T15:14:48.501Z,-5.80
2022-12-14T15:20:00.034Z,-5.60
2022-12-14T15:25:03.404Z,-5.60
2022-12-14T15:30:11.933Z,-5.60
2022-12-14T15:35:18.867Z,-5.50
2022-12-14T15:40:25.257Z,-5.60
2022-12-14T15:45:33.201Z,-5.30
2022-12-14T15:50:36.681Z,-5.20
2022-12-14T15:55:42.129Z,-5.10
2022-12-14T16:00:52.119Z,-5.00
2022-12-14T16:05:56.888Z,-5.00
2022-12-14T16:11:03.838Z,-4.70
2022-12-14T16:16:12.798Z,-4.80
2022-12-14T16:22:08.975Z,-4.50
2022-12-14T16:27:18.281Z,-4.60
2022-12-14T16:32:22.967Z,-4.50
2022-12-14T16:37:33.934Z,-4.30
2022-12-14T16:42:37.029Z,-4.60
2022-12-14T16:48:09.214Z,-4.60
2022-12-14T16:53:21.323Z,-4.40
2022-12-14T16:58:24.267Z,-4.20
2022-12-14T17:03:28.505Z,-4.10
2022-12-14T17:08:33.650Z,-3.80
2022-12-14T17:13:36.540Z,-3.80
2022-12-14T17:18:42.390Z,-2.20
2022-12-14T17:23:46.261Z,-3.70
2022-12-14T17:28:49.134Z,-3.60
2022-12-14T17:33:56.145Z,-3.60
2022-12-14T17:38:58.898Z,-3.50
2022-12-14T17:44:01.954Z,-3.60
2022-12-14T17:49:07.017Z,-3.50
2022-12-14T17:54:18.215Z,-3.50
2022-12-14T17:59:20.860Z,-3.50
2022-12-14T18:04:24.493Z,-2.30
2022-12-14T18:09:27.031Z,-3.50
2022-12-14T18:14:29.845Z,-3.40
2022-12-14T18:19:32.506Z,-3.40
2022-12-14T18:24:35.202Z,-3.40
2022-12-14T18:29:38.961Z,-3.40
2022-12-14T18:34:41.840Z,-3.40
2022-12-14T18:39:44.747Z,-3.40
2022-12-14T18:44:52.347Z,-3.50
2022-12-14T18:49:55.926Z,-3.40
2022-12-14T18:54:58.550Z,-3.60
2022-12-14T19:00:01.143Z,-3.60
2022-12-14T19:05:16.916Z,-3.60
2022-12-14T19:10:22.632Z,-3.60
2022-12-14T19:15:28.899Z,-3.60
2022-12-14T19:20:31.799Z,-3.60
2022-12-14T19:25:34.414Z,-3.50
2022-12-14T19:30:37.201Z,-3.60
2022-12-14T19:35:41.664Z,-2.80
2022-12-14T19:40:56.582Z,-3.00
2022-12-14T19:45:59.686Z,-2.40
2022-12-14T19:51:12.590Z,-3.50
2022-12-14T19:56:18.360Z,-3.50
2022-12-14T20:01:20.955Z,-2.90
2022-12-14T20:06:23.752Z,-3.50
2022-12-14T20:11:26.790Z,-3.40
2022-12-14T20:16:29.778Z,-3.50
2022-12-14T20:21:34.290Z,-3.50
2022-12-14T20:26:37.321Z,-3.50
2022-12-14T20:31:40.578Z,-3.50
2022-12-14T20:36:43.325Z,-3.60
2022-12-14T20:41:45.957Z,-3.70
2022-12-14T20:46:51.842Z,-1.80
2022-12-14T20:51:54.580Z,-3.60
2022-12-14T20:56:59.864Z,-3.80
2022-12-14T21:02:02.841Z,-3.90
2022-12-14T21:07:05.630Z,-4.00
2022-12-14T21:12:21.613Z,-4.00
2022-12-14T21:17:27.045Z,-4.20
2022-12-14T21:22:30.595Z,-4.20
2022-12-14T21:27:34.781Z,-4.10
2022-12-14T21:32:38.254Z,-4.00
2022-12-14T21:37:41.001Z,-3.90
2022-12-14T21:42:43.446Z,-2.70
2022-12-14T21:47:46.252Z,-4.00
2022-12-14T21:52:48.776Z,-2.70
2022-12-14T21:58:09.985Z,-4.00
2022-12-14T22:03:12.659Z,-4.00
2022-12-14T22:08:16.419Z,-4.10
2022-12-14T22:13:19.141Z,-4.20
2022-12-14T22:18:21.691Z,-1.90
2022-12-14T22:23:24.182Z,-4.00
2022-12-14T22:28:26.826Z,-4.20
2022-12-14T22:33:33.938Z,-4.20
2022-12-14T22:38:36.620Z,-4.30
2022-12-14T22:43:39.576Z,-4.30
2022-12-14T22:48:42.333Z,-4.30
2022-12-14T22:53:44.862Z,-4.30
2022-12-14T22:59:02.353Z,-4.30
2022-12-14T23:04:07.070Z,-4.20
2022-12-14T23:09:28.223Z,-3.90
2022-12-14T23:14:49.230Z,-3.90
2022-12-14T23:20:10.660Z,-3.80
2022-12-14T23:25:31.918Z,-2.20
2022-12-14T23:30:52.871Z,-3.80
2022-12-14T23:36:13.879Z,-3.90
2022-12-14T23:41:35.230Z,-3.90
2022-12-14T23:46:56.192Z,-3.80
2022-12-14T23:52:17.330Z,-4.00
2022-12-14T23:57:38.191Z,-4.00
